Time;durP1;ratioP1;P1;durP2;ratioP2;P2;SDS_P1;SDS_P2;PMS_P1;PMS_P2;Temp;Humidity;BMP_temperature;BMP_pressure;BME280_temperature;BME280_humidity;BME280_pressure;Samples;Min_cycle;Max_cycle;Signal;HPM_P1;HPM_P2
2024/01/01 00:01:20;;;;;;;3.03;2.40;;;7.20;99.90;;;;;;5106069;27;20084;-82
2024/01/01 00:03:45;;;;;;;3.75;2.75;;;7.20;99.90;;;;;;5110282;27;20039;-83
2024/01/01 00:06:11;;;;;;;3.28;3.08;;;7.10;99.90;;;;;;5120785;27;20039;-83
2024/01/01 00:08:36;;;;;;;2.50;2.38;;;7.10;99.90;;;;;;5125447;27;20147;-83
2024/01/01 00:11:02;;;;;;;2.92;2.50;;;7.10;99.90;;;;;;5124289;27;20091;-81
2024/01/01 00:13:28;;;;;;;1.25;1.23;;;7.10;99.90;;;;;;5119633;27;20039;-83
2024/01/01 00:15:54;;;;;;;4.85;1.88;;;7.10;99.90;;;;;;5111672;27;20068;-81
2024/01/01 00:18:20;;;;;;;4.53;3.80;;;7.00;99.90;;;;;;5109260;27;20079;-80
2024/01/01 00:20:45;;;;;;;4.90;4.50;;;7.00;99.90;;;;;;5125063;27;20067;-84
2024/01/01 00:23:11;;;;;;;0.95;0.95;;;7.40;99.90;;;;;;5122568;27;20051;-81
2024/01/01 00:25:37;;;;;;;2.13;1.92;;;7.00;99.90;;;;;;5127935;27;20339;-80
2024/01/01 00:28:06;;;;;;;2.08;1.98;;;7.00;99.90;;;;;;5122919;27;20182;-80
2024/01/01 00:30:33;;;;;;;6.82;6.43;;;7.00;99.90;;;;;;5113095;27;20040;-80
2024/01/01 00:32:58;;;;;;;3.03;2.83;;;7.00;99.90;;;;;;5129094;27;20059;-82
2024/01/01 00:35:24;;;;;;;3.67;3.28;;;6.90;99.90;;;;;;5117142;27;20087;-81
2024/01/01 00:37:50;;;;;;;2.97;1.45;;;6.90;99.90;;;;;;5111023;27;20052;-79
2024/01/01 00:40:15;;;;;;;5.20;2.97;;;6.90;99.90;;;;;;5093941;27;20038;-79
2024/01/01 00:42:43;;;;;;;1.40;1.25;;;6.90;99.90;;;;;;5110498;27;20103;-81
2024/01/01 00:45:09;;;;;;;1.50;1.40;;;7.00;99.90;;;;;;5085013;27;20456;-82
2024/01/01 00:47:35;;;;;;;1.30;1.20;;;7.10;99.90;;;;;;5122152;27;20046;-81
2024/01/01 00:50:01;;;;;;;1.10;1.10;;;6.90;99.90;;;;;;5126407;27;20047;-82
2024/01/01 00:52:26;;;;;;;5.20;1.55;;;7.00;99.90;;;;;;5122844;27;20043;-82
2024/01/01 00:54:52;;;;;;;2.97;2.47;;;7.00;99.90;;;;;;5120877;27;20116;-79
2024/01/01 00:57:18;;;;;;;1.58;1.50;;;7.00;99.90;;;;;;5106878;27;20027;-80
2024/01/01 00:59:44;;;;;;;0.93;0.93;;;6.90;99.90;;;;;;5119910;27;20059;-78
2024/01/01 01:02:09;;;;;;;2.67;2.15;;;7.00;99.90;;;;;;5108872;27;20035;-82
2024/01/01 01:04:35;;;;;;;10.85;1.73;;;7.00;99.90;;;;;;5124926;27;20046;-79
2024/01/01 01:07:02;;;;;;;5.47;3.40;;;6.90;99.90;;;;;;5128302;27;20043;-80
2024/01/01 01:09:28;;;;;;;1.67;1.58;;;7.00;99.90;;;;;;5126691;27;20351;-80
2024/01/01 01:11:54;;;;;;;1.83;1.73;;;6.90;99.90;;;;;;5119503;27;20087;-81
2024/01/01 01:14:19;;;;;;;3.45;3.25;;;6.90;99.90;;;;;;5098759;27;20039;-81
2024/01/01 01:16:46;;;;;;;3.40;3.13;;;6.90;99.90;;;;;;5125568;27;20066;-79
2024/01/01 01:19:11;;;;;;;;;;;6.90;99.90;;;;;;5123048;27;20081;-80
2024/01/01 01:21:37;;;;;;;3.17;2.88;;;7.00;99.90;;;;;;5122076;27;19954;-80
2024/01/01 01:24:03;;;;;;;7.93;4.10;;;6.90;99.90;;;;;;5101395;27;20092;-81
2024/01/01 01:26:29;;;;;;;1.63;1.30;;;6.90;99.90;;;;;;5101400;27;20131;-80
2024/01/01 01:28:56;;;;;;;2.53;2.33;;;6.90;99.90;;;;;;5115461;27;20047;-80
2024/01/01 01:31:22;;;;;;;1.02;0.93;;;7.00;99.90;;;;;;5108593;27;20035;-79
2024/01/01 01:33:48;;;;;;;2.05;1.95;;;6.90;99.90;;;;;;5115173;27;20046;-80
2024/01/01 01:36:14;;;;;;;2.50;1.58;;;6.90;99.90;;;;;;5124648;27;20052;-78
2024/01/01 01:38:40;;;;;;;1.35;1.25;;;6.90;99.90;;;;;;5123815;27;20039;-80
2024/01/01 01:41:06;;;;;;;0.93;0.93;;;7.00;99.90;;;;;;5124560;27;20384;-82
2024/01/01 01:43:32;;;;;;;1.55;1.02;;;7.00;99.90;;;;;;5125462;27;20039;-80
2024/01/01 01:45:59;;;;;;;1.58;1.48;;;7.10;99.90;;;;;;5126522;27;20047;-80
2024/01/01 01:48:25;;;;;;;1.88;1.77;;;7.10;99.90;;;;;;5127922;27;20039;-81
2024/01/01 01:50:51;;;;;;;1.67;1.27;;;7.10;99.90;;;;;;5109425;27;20047;-81
2024/01/01 01:53:23;;;;;;;;;;;7.10;99.90;;;;;;5127427;27;20043;-82
2024/01/01 01:55:52;;;;;;;0.70;0.70;;;7.20;99.90;;;;;;5130387;27;19928;-80
2024/01/01 01:58:18;;;;;;;2.05;1.90;;;7.10;99.90;;;;;;5131016;27;20047;-81
2024/01/01 02:00:47;;;;;;;2.50;1.75;;;7.20;99.90;;;;;;5109154;27;20099;-81
2024/01/01 02:03:14;;;;;;;4.18;3.80;;;7.20;99.90;;;;;;5126776;27;20050;-81
2024/01/01 02:05:39;;;;;;;;;;;7.20;99.90;;;;;;5134203;27;20042;-82
2024/01/01 02:08:07;;;;;;;1.17;1.08;;;7.30;99.90;;;;;;5134421;27;19919;-82
2024/01/01 02:10:33;;;;;;;1.90;1.77;;;7.20;99.90;;;;;;5134388;27;20050;-80
2024/01/01 02:13:03;;;;;;;6.15;3.13;;;7.30;99.90;;;;;;5131495;27;20047;-79
2024/01/01 02:15:29;;;;;;;1.60;1.50;;;7.40;99.90;;;;;;5114392;27;20047;-78
2024/01/01 02:17:54;;;;;;;3.95;3.75;;;7.30;99.90;;;;;;5115595;27;20042;-80
2024/01/01 02:20:20;;;;;;;0.82;0.82;;;7.70;99.90;;;;;;5114145;27;20481;-79
2024/01/01 02:22:46;;;;;;;2.05;1.95;;;7.40;99.90;;;;;;5131072;27;20143;-79
2024/01/01 02:25:12;;;;;;;1.50;1.40;;;7.30;99.90;;;;;;5116282;27;20054;-79
2024/01/01 02:27:39;;;;;;;2.30;1.38;;;7.40;99.90;;;;;;5132824;27;20411;-79
2024/01/01 02:30:15;;;;;;;1.52;1.42;;;7.40;99.90;;;;;;5093363;27;20058;-79
2024/01/01 02:32:40;;;;;;;2.00;1.90;;;7.40;99.90;;;;;;5130169;27;20399;-79
2024/01/01 02:35:08;;;;;;;3.47;3.15;;;7.40;99.90;;;;;;5129831;27;20043;-79
2024/01/01 02:37:35;;;;;;;2.40;1.48;;;7.40;99.90;;;;;;5129604;27;20569;-79
2024/01/01 02:40:01;;;;;;;3.15;2.88;;;7.40;99.90;;;;;;5130750;27;20058;-79
2024/01/01 02:42:29;;;;;;;1.02;1.02;;;7.40;99.90;;;;;;5126859;27;20047;-80
2024/01/01 02:44:55;;;;;;;2.00;1.88;;;7.40;99.90;;;;;;5130229;27;20054;-79
2024/01/01 02:47:20;;;;;;;;;;;7.50;99.90;;;;;;5129894;27;20043;-79
2024/01/01 02:49:46;;;;;;;2.28;1.88;;;7.40;99.90;;;;;;5113026;27;19966;-80
2024/01/01 02:52:12;;;;;;;1.80;1.70;;;7.40;99.90;;;;;;5130071;27;20134;-79
2024/01/01 02:54:37;;;;;;;2.17;2.08;;;7.40;99.90;;;;;;5130256;27;20140;-79
2024/01/01 02:57:03;;;;;;;2.38;1.38;;;7.30;99.90;;;;;;5112417;27;20039;-80
2024/01/01 02:59:29;;;;;;;1.60;1.50;;;7.20;99.90;;;;;;5130555;27;20151;-79
2024/01/01 03:01:55;;;;;;;0.88;0.88;;;7.10;99.90;;;;;;5130072;27;20135;-78
2024/01/01 03:04:20;;;;;;;0.90;0.90;;;7.20;99.90;;;;;;5114679;27;20039;-78
2024/01/01 03:06:46;;;;;;;1.45;1.35;;;7.00;99.90;;;;;;5095916;27;20676;-78
2024/01/01 03:09:12;;;;;;;1.83;1.73;;;6.90;99.90;;;;;;5111920;27;20042;-79
2024/01/01 03:11:38;;;;;;;0.57;0.57;;;6.90;99.90;;;;;;5111435;27;20031;-79
2024/01/01 03:14:04;;;;;;;1.10;1.10;;;6.80;99.90;;;;;;5133608;27;20042;-80
2024/01/01 03:16:30;;;;;;;0.50;0.50;;;6.80;99.90;;;;;;5129506;27;20046;-79
2024/01/01 03:18:55;;;;;;;3.67;1.23;;;6.70;99.90;;;;;;5093398;27;20506;-79
2024/01/01 03:21:21;;;;;;;0.73;0.73;;;6.70;99.90;;;;;;5113642;27;20059;-80
2024/01/01 03:23:47;;;;;;;0.73;0.73;;;6.60;99.90;;;;;;5116722;27;20398;-80
2024/01/01 03:26:12;;;;;;;0.65;0.65;;;6.60;99.90;;;;;;5112759;27;20111;-79
2024/01/01 03:28:38;;;;;;;0.68;0.68;;;6.60;99.90;;;;;;5113560;27;20101;-81
2024/01/01 03:31:04;;;;;;;1.23;1.13;;;6.60;99.90;;;;;;5112483;27;20118;-80
2024/01/01 03:33:34;;;;;;;0.63;0.63;;;6.60;99.90;;;;;;5113049;27;20036;-80
2024/01/01 03:36:00;;;;;;;0.43;0.43;;;6.60;99.90;;;;;;5111896;27;20488;-81
2024/01/01 03:38:25;;;;;;;0.50;0.50;;;6.50;99.90;;;;;;5111627;27;20463;-79
2024/01/01 03:40:51;;;;;;;1.33;1.33;;;6.60;99.90;;;;;;5130558;27;20047;-79
2024/01/01 03:43:17;;;;;;;0.80;0.80;;;6.60;99.90;;;;;;5128452;27;20058;-81
2024/01/01 03:45:42;;;;;;;1.80;1.75;;;6.60;99.90;;;;;;5128996;27;20142;-80
2024/01/01 03:48:08;;;;;;;0.60;0.60;;;6.60;99.90;;;;;;5109389;27;20058;-80
2024/01/01 03:50:34;;;;;;;0.50;0.50;;;6.60;99.90;;;;;;5127368;27;20050;-80
2024/01/01 03:53:00;;;;;;;0.75;0.75;;;6.60;99.90;;;;;;5129351;27;20055;-80
2024/01/01 03:55:25;;;;;;;0.98;0.98;;;6.60;99.90;;;;;;5129535;27;20484;-79
2024/01/01 03:57:51;;;;;;;0.52;0.52;;;6.50;99.90;;;;;;5109687;27;20075;-81
2024/01/01 04:00:17;;;;;;;0.57;0.57;;;6.50;99.90;;;;;;5108546;27;20076;-79
2024/01/01 04:02:43;;;;;;;1.00;1.00;;;6.50;99.90;;;;;;5128197;27;20039;-79
2024/01/01 04:05:09;;;;;;;0.52;0.52;;;6.50;99.90;;;;;;5128353;27;20341;-80
2024/01/01 04:07:36;;;;;;;0.93;0.93;;;6.50;99.90;;;;;;5127645;27;20047;-80
2024/01/01 04:10:06;;;;;;;0.88;0.88;;;6.50;99.90;;;;;;5136981;27;20043;-80
2024/01/01 04:12:32;;;;;;;1.60;0.77;;;6.50;99.90;;;;;;5127616;27;20035;-80
2024/01/01 04:14:58;;;;;;;;;;;6.50;99.90;;;;;;5127746;27;20054;-79
2024/01/01 04:17:24;;;;;;;0.85;0.85;;;6.50;99.90;;;;;;5127655;27;19997;-79
2024/01/01 04:19:49;;;;;;;0.70;0.70;;;6.40;99.90;;;;;;5127570;27;20058;-79
2024/01/01 04:22:16;;;;;;;0.57;0.57;;;6.50;99.90;;;;;;5128395;27;20087;-80
2024/01/01 04:24:44;;;;;;;0.43;0.43;;;6.50;99.90;;;;;;5126870;27;20049;-78
2024/01/01 04:27:10;;;;;;;0.75;0.75;;;6.50;99.90;;;;;;5127456;27;20042;-79
2024/01/01 04:29:36;;;;;;;;;;;6.50;99.90;;;;;;5129547;27;20063;-79
2024/01/01 04:32:02;;;;;;;0.60;0.60;;;6.50;99.90;;;;;;5126417;27;19915;-79
2024/01/01 04:34:28;;;;;;;0.55;0.55;;;6.40;99.90;;;;;;5107735;27;20125;-80
2024/01/01 04:36:54;;;;;;;0.60;0.60;;;6.40;99.90;;;;;;5109735;27;20114;-79
2024/01/01 04:39:20;;;;;;;0.50;0.50;;;6.40;99.90;;;;;;5126773;27;20046;-82
2024/01/01 04:41:45;;;;;;;0.50;0.50;;;6.40;99.90;;;;;;5127923;27;20039;-80
2024/01/01 04:44:11;;;;;;;0.50;0.50;;;6.50;99.90;;;;;;5109328;27;20046;-80
2024/01/01 04:46:37;;;;;;;0.50;0.50;;;6.40;99.90;;;;;;5126988;27;20642;-79
2024/01/01 04:49:03;;;;;;;1.95;1.85;;;6.30;99.90;;;;;;5126992;27;20030;-80
2024/01/01 04:51:28;;;;;;;0.60;0.60;;;6.40;99.90;;;;;;5129365;27;20122;-80
2024/01/01 04:53:54;;;;;;;0.73;0.73;;;6.30;99.90;;;;;;5128713;27;20039;-78
2024/01/01 04:56:23;;;;;;;0.52;0.52;;;6.50;99.90;;;;;;5127337;27;20377;-79
2024/01/01 04:58:49;;;;;;;0.50;0.50;;;6.60;99.90;;;;;;5128403;27;20046;-80
2024/01/01 05:01:15;;;;;;;0.60;0.60;;;6.40;99.90;;;;;;5128609;27;20074;-79
2024/01/01 05:03:40;;;;;;;1.10;1.10;;;6.30;99.90;;;;;;5125812;27;20143;-79
2024/01/01 05:06:06;;;;;;;0.70;0.70;;;6.40;99.90;;;;;;5128099;27;20357;-80
2024/01/01 05:08:32;;;;;;;0.52;0.52;;;6.30;99.90;;;;;;5126121;27;20599;-79
2024/01/01 05:10:58;;;;;;;0.63;0.63;;;6.30;99.90;;;;;;5127519;27;20047;-79
2024/01/01 05:13:24;;;;;;;1.55;0.90;;;6.30;99.90;;;;;;5125049;27;20361;-78
2024/01/01 05:15:49;;;;;;;0.60;0.60;;;6.30;99.90;;;;;;5126031;27;20086;-81
2024/01/01 05:18:15;;;;;;;0.60;0.60;;;6.30;99.90;;;;;;5128407;27;20031;-78
2024/01/01 05:20:41;;;;;;;0.55;0.55;;;6.30;99.90;;;;;;5126161;27;20043;-78
2024/01/01 05:23:07;;;;;;;0.60;0.60;;;6.30;99.90;;;;;;5127155;27;20392;-81
2024/01/01 05:25:33;;;;;;;0.40;0.40;;;6.30;99.90;;;;;;5128337;27;20051;-79
2024/01/01 05:27:59;;;;;;;0.77;0.77;;;6.30;99.90;;;;;;5130603;27;20035;-79
2024/01/01 05:30:27;;;;;;;0.65;0.65;;;6.40;99.90;;;;;;5115674;27;20055;-81
2024/01/01 05:32:53;;;;;;;0.50;0.50;;;6.50;99.90;;;;;;5113741;27;20462;-81
2024/01/01 05:35:18;;;;;;;0.60;0.60;;;6.40;99.90;;;;;;5127355;27;20035;-81
2024/01/01 05:37:44;;;;;;;0.52;0.52;;;6.30;99.90;;;;;;5110825;27;20133;-82
2024/01/01 05:40:10;;;;;;;0.70;0.70;;;6.40;99.90;;;;;;5126709;28;20063;-82
2024/01/01 05:42:36;;;;;;;0.50;0.50;;;5.80;99.90;;;;;;5128155;27;20446;-80
2024/01/01 05:45:03;;;;;;;0.65;0.65;;;6.40;99.90;;;;;;5125343;27;20058;-78
2024/01/01 05:47:28;;;;;;;0.50;0.50;;;6.40;99.90;;;;;;5126514;28;20482;-82
2024/01/01 05:49:54;;;;;;;0.60;0.60;;;6.40;99.90;;;;;;5130759;27;20039;-80
2024/01/01 05:52:21;;;;;;;0.60;0.60;;;6.30;99.90;;;;;;5125801;28;20047;-80
2024/01/01 05:54:48;;;;;;;0.82;0.82;;;6.40;99.90;;;;;;5127637;27;20400;-81
2024/01/01 05:57:14;;;;;;;0.50;0.50;;;6.40;99.90;;;;;;5127630;27;20039;-80
2024/01/01 05:59:39;;;;;;;0.55;0.55;;;6.40;99.90;;;;;;5092504;27;20038;-80
2024/01/01 06:02:05;;;;;;;0.50;0.50;;;6.50;99.90;;;;;;5126695;27;20539;-79
2024/01/01 06:04:31;;;;;;;0.63;0.63;;;6.40;99.90;;;;;;5125981;27;20087;-79
2024/01/01 06:06:57;;;;;;;0.40;0.40;;;6.40;99.90;;;;;;5125898;27;20441;-79
2024/01/01 06:09:23;;;;;;;0.60;0.60;;;6.40;99.90;;;;;;5126108;27;20406;-79
2024/01/01 06:11:49;;;;;;;0.50;0.50;;;6.50;99.90;;;;;;5125650;28;20043;-79
2024/01/01 06:14:15;;;;;;;;;;;6.50;99.90;;;;;;5124928;27;20042;-80
2024/01/01 06:16:43;;;;;;;0.50;0.50;;;6.50;99.90;;;;;;5127923;27;20288;-80
2024/01/01 06:19:12;;;;;;;0.40;0.40;;;6.50;99.90;;;;;;5129888;27;20047;-79
2024/01/01 06:21:38;;;;;;;0.50;0.50;;;6.60;99.90;;;;;;5113447;27;20051;-80
2024/01/01 06:24:04;;;;;;;0.60;0.60;;;6.60;99.90;;;;;;5128294;27;20399;-82
2024/01/01 06:26:30;;;;;;;;;;;6.60;99.90;;;;;;5129775;27;20084;-79
2024/01/01 06:28:55;;;;;;;0.40;0.40;;;6.60;99.90;;;;;;5130415;27;19923;-79
2024/01/01 06:31:21;;;;;;;0.55;0.55;;;6.60;99.90;;;;;;5130512;27;20055;-80
2024/01/01 06:33:47;;;;;;;0.50;0.50;;;6.60;99.90;;;;;;5130677;27;20391;-79
2024/01/01 06:36:12;;;;;;;0.45;0.45;;;6.70;99.90;;;;;;5130314;27;20119;-79
2024/01/01 06:38:38;;;;;;;0.60;0.60;;;6.70;99.90;;;;;;5112833;27;20081;-78
2024/01/01 06:41:05;;;;;;;0.73;0.73;;;6.60;99.90;;;;;;5130670;27;20039;-79
2024/01/01 06:43:31;;;;;;;0.50;0.50;;;6.60;99.90;;;;;;5112788;27;20039;-79
2024/01/01 06:45:57;;;;;;;;;;;6.60;99.90;;;;;;5129750;27;20050;-78
2024/01/01 06:48:22;;;;;;;0.50;0.50;;;6.60;99.90;;;;;;5112930;27;19916;-78
2024/01/01 06:50:48;;;;;;;0.50;0.50;;;6.60;99.90;;;;;;5129064;27;20333;-79
2024/01/01 06:53:14;;;;;;;0.60;0.60;;;6.60;99.90;;;;;;5128138;27;21242;-81
2024/01/01 06:55:39;;;;;;;0.45;0.45;;;6.60;99.90;;;;;;5128819;27;20037;-78
2024/01/01 06:58:08;;;;;;;0.47;0.47;;;6.70;99.90;;;;;;5136044;27;20110;-79
2024/01/01 07:00:34;;;;;;;0.73;0.73;;;6.70;99.90;;;;;;5128229;27;20121;-79
2024/01/01 07:02:59;;;;;;;0.47;0.47;;;6.70;99.90;;;;;;5111625;27;20476;-79
2024/01/01 07:05:28;;;;;;;0.50;0.50;;;6.70;99.90;;;;;;5126731;27;20068;-79
2024/01/01 07:07:54;;;;;;;2.05;0.70;;;6.70;99.90;;;;;;5128176;27;20047;-78
2024/01/01 07:10:20;;;;;;;0.43;0.43;;;6.70;99.90;;;;;;5112076;27;20058;-79
2024/01/01 07:12:46;;;;;;;0.47;0.47;;;6.70;99.90;;;;;;5127207;27;20031;-78
2024/01/01 07:15:12;;;;;;;0.43;0.43;;;6.70;99.90;;;;;;5111098;27;20138;-78
2024/01/01 07:17:37;;;;;;;0.50;0.50;;;6.70;99.90;;;;;;5127684;27;20043;-79
2024/01/01 07:20:04;;;;;;;0.93;0.93;;;6.60;99.90;;;;;;5110764;27;20047;-79
2024/01/01 07:22:30;;;;;;;0.50;0.50;;;6.70;99.90;;;;;;5114845;27;20123;-79
2024/01/01 07:24:56;;;;;;;0.30;0.30;;;6.70;99.90;;;;;;5132699;27;20129;-79
2024/01/01 07:27:22;;;;;;;0.40;0.40;;;6.70;99.90;;;;;;5112491;27;20050;-79
2024/01/01 07:29:47;;;;;;;4.05;3.83;;;6.70;99.90;;;;;;5111871;27;20058;-80
2024/01/01 07:32:13;;;;;;;0.85;0.85;;;6.70;99.90;;;;;;5128040;27;20632;-80
2024/01/01 07:34:39;;;;;;;0.40;0.40;;;6.80;99.90;;;;;;5134063;27;20055;-79
2024/01/01 07:37:05;;;;;;;0.50;0.50;;;6.70;99.90;;;;;;5129871;27;20043;-80
2024/01/01 07:39:31;;;;;;;0.60;0.60;;;6.60;99.90;;;;;;5128652;27;20456;-80
2024/01/01 07:41:57;;;;;;;0.47;0.47;;;6.60;99.90;;;;;;5111652;27;20043;-80
2024/01/01 07:44:23;;;;;;;0.50;0.50;;;6.50;99.90;;;;;;5128674;27;20050;-84
2024/01/01 07:46:49;;;;;;;0.60;0.60;;;6.40;99.90;;;;;;5127655;27;21263;-82
2024/01/01 07:49:18;;;;;;;0.50;0.50;;;6.30;99.90;;;;;;5129165;27;20042;-82
2024/01/01 07:51:45;;;;;;;0.50;0.50;;;6.30;99.90;;;;;;5095002;27;20035;-83
2024/01/01 07:54:12;;;;;;;0.43;0.43;;;6.30;99.90;;;;;;5111588;27;20041;-84
2024/01/01 07:56:43;;;;;;;0.60;0.60;;;6.30;99.90;;;;;;5118152;27;20100;-81
2024/01/01 07:59:09;;;;;;;0.40;0.40;;;6.10;99.90;;;;;;5133069;27;20396;-83
2024/01/01 08:01:35;;;;;;;0.52;0.52;;;6.00;99.90;;;;;;5114564;27;20043;-81
2024/01/01 08:04:01;;;;;;;0.40;0.40;;;5.90;99.90;;;;;;5130567;27;20046;-84
2024/01/01 08:06:28;;;;;;;0.55;0.55;;;5.90;99.90;;;;;;5087131;27;20047;-81
2024/01/01 08:08:53;;;;;;;2.67;0.90;;;5.90;99.90;;;;;;5127469;27;20487;-83
2024/01/01 08:11:19;;;;;;;0.52;0.52;;;6.00;99.90;;;;;;5110413;27;20043;-83
2024/01/01 08:13:45;;;;;;;0.55;0.55;;;5.90;99.90;;;;;;5110791;27;20039;-82
2024/01/01 08:16:12;;;;;;;0.50;0.50;;;5.90;99.90;;;;;;5128662;27;20047;-82
2024/01/01 08:18:38;;;;;;;0.45;0.45;;;5.90;99.90;;;;;;5094913;27;20145;-83
2024/01/01 08:21:03;;;;;;;0.60;0.60;;;5.90;99.90;;;;;;5109798;27;20042;-87
2024/01/01 08:23:29;;;;;;;0.60;0.60;;;5.90;99.90;;;;;;5129791;27;20027;-83
2024/01/01 08:25:56;;;;;;;0.57;0.57;;;5.90;99.90;;;;;;5110488;27;20046;-81
2024/01/01 08:28:22;;;;;;;0.40;0.40;;;6.00;99.90;;;;;;5110751;27;20059;-82
2024/01/01 08:30:48;;;;;;;0.70;0.70;;;5.80;99.90;;;;;;5129267;27;20055;-85
2024/01/01 08:33:14;;;;;;;0.40;0.40;;;5.90;99.90;;;;;;5098765;27;20042;-83
2024/01/01 08:35:40;;;;;;;0.60;0.60;;;5.90;99.90;;;;;;5130067;27;20043;-82
2024/01/01 08:38:06;;;;;;;0.70;0.70;;;6.00;99.90;;;;;;5127855;27;20616;-80
2024/01/01 08:40:31;;;;;;;0.50;0.50;;;6.10;99.90;;;;;;5126691;27;20445;-82
2024/01/01 08:42:57;;;;;;;0.52;0.52;;;6.60;99.90;;;;;;5125867;27;21469;-79
2024/01/01 08:45:23;;;;;;;0.40;0.40;;;6.00;99.90;;;;;;5126911;27;20061;-78
2024/01/01 08:47:48;;;;;;;0.52;0.52;;;6.10;99.90;;;;;;5127973;27;20548;-79
2024/01/01 08:50:14;;;;;;;0.65;0.65;;;6.10;99.90;;;;;;5110395;27;20043;-82
2024/01/01 08:52:42;;;;;;;0.60;0.60;;;6.10;99.90;;;;;;5090831;28;20040;-81
2024/01/01 08:55:08;;;;;;;0.50;0.50;;;6.30;99.90;;;;;;5130695;27;20129;-81
2024/01/01 08:57:34;;;;;;;0.50;0.50;;;6.20;99.90;;;;;;5111331;27;20146;-81
2024/01/01 09:00:01;;;;;;;0.47;0.47;;;6.20;99.90;;;;;;5128037;27;20527;-81
2024/01/01 09:02:26;;;;;;;0.40;0.40;;;6.20;99.90;;;;;;5108711;27;20063;-80
2024/01/01 09:04:52;;;;;;;0.50;0.50;;;6.30;99.90;;;;;;5125062;27;20047;-80
2024/01/01 09:07:19;;;;;;;0.60;0.60;;;6.20;99.90;;;;;;5132845;27;20075;-79
2024/01/01 09:09:44;;;;;;;0.40;0.40;;;6.20;99.90;;;;;;5127516;27;20109;-82
2024/01/01 09:12:10;;;;;;;0.50;0.50;;;6.20;99.90;;;;;;5130031;27;20118;-83
2024/01/01 09:14:36;;;;;;;0.60;0.60;;;6.20;99.90;;;;;;5127632;27;20043;-82
2024/01/01 09:17:03;;;;;;;0.45;0.45;;;6.20;99.90;;;;;;5127131;27;20047;-83
2024/01/01 09:19:29;;;;;;;0.50;0.50;;;6.20;99.90;;;;;;5111786;27;20118;-82
2024/01/01 09:21:55;;;;;;;0.55;0.55;;;6.10;99.90;;;;;;5121645;27;20535;-82
2024/01/01 09:24:21;;;;;;;0.60;0.60;;;6.20;99.90;;;;;;5127909;27;20069;-82
2024/01/01 09:26:47;;;;;;;0.50;0.50;;;6.50;99.90;;;;;;5127237;27;20127;-82
2024/01/01 09:29:12;;;;;;;0.52;0.52;;;6.10;99.90;;;;;;5126688;27;20085;-81
2024/01/01 09:31:38;;;;;;;0.50;0.50;;;6.00;99.90;;;;;;5110852;27;20062;-85
2024/01/01 09:34:06;;;;;;;0.50;0.50;;;6.10;99.90;;;;;;5130316;27;20531;-83
2024/01/01 09:36:32;;;;;;;0.45;0.45;;;6.10;99.90;;;;;;5129935;27;20122;-84
2024/01/01 09:38:58;;;;;;;0.55;0.55;;;6.00;99.90;;;;;;5106148;27;20368;-82
2024/01/01 09:41:25;;;;;;;0.70;0.70;;;5.80;99.90;;;;;;5108044;27;20337;-85
2024/01/01 09:43:55;;;;;;;0.50;0.50;;;6.00;99.90;;;;;;5126406;27;20104;-84
2024/01/01 09:46:22;;;;;;;0.50;0.50;;;6.00;99.90;;;;;;5130192;27;20066;-85
2024/01/01 09:48:48;;;;;;;0.50;0.50;;;6.00;99.90;;;;;;5111429;27;20122;-82
2024/01/01 09:51:14;;;;;;;0.60;0.60;;;6.00;99.90;;;;;;5131388;27;20129;-86
2024/01/01 09:53:40;;;;;;;0.50;0.50;;;6.00;99.90;;;;;;5116534;27;20067;-86
2024/01/01 09:56:06;;;;;;;;;;;6.10;99.90;;;;;;5129171;27;20155;-86
2024/01/01 09:58:42;;;;;;;0.50;0.50;;;6.10;99.90;;;;;;5135612;27;20321;-84
2024/01/01 10:01:13;;;;;;;0.50;0.50;;;6.20;99.90;;;;;;5128726;27;20075;-84
2024/01/01 10:03:40;;;;;;;0.60;0.60;;;6.20;99.90;;;;;;5115670;27;20035;-84
2024/01/01 10:06:12;;;;;;;0.60;0.60;;;6.30;99.90;;;;;;5135008;27;20078;-84
2024/01/01 10:08:38;;;;;;;0.38;0.38;;;6.30;99.90;;;;;;5137628;27;20035;-84
2024/01/01 10:11:14;;;;;;;;;;;6.30;99.90;;;;;;5135755;27;20345;-83
2024/01/01 10:13:40;;;;;;;0.60;0.60;;;6.30;99.90;;;;;;5135381;27;19918;-85
2024/01/01 10:16:07;;;;;;;0.43;0.43;;;6.30;99.90;;;;;;5140300;27;20049;-86
2024/01/01 10:18:33;;;;;;;0.60;0.60;;;6.30;99.90;;;;;;5115834;27;20038;-84
2024/01/01 10:21:11;;;;;;;0.60;0.60;;;6.40;99.90;;;;;;5136732;27;20030;-82
2024/01/01 10:23:37;;;;;;;0.50;0.50;;;6.40;99.90;;;;;;5119081;27;20405;-81
2024/01/01 10:26:04;;;;;;;0.68;0.68;;;6.50;99.90;;;;;;5131925;27;20043;-84
2024/01/01 10:28:31;;;;;;;0.50;0.50;;;6.50;99.90;;;;;;5141406;27;20039;-86
2024/01/01 10:31:01;;;;;;;0.40;0.40;;;6.80;99.90;;;;;;5160860;27;20063;-80
2024/01/01 10:33:29;;;;;;;0.50;0.50;;;6.50;99.90;;;;;;5145340;27;20076;-79
2024/01/01 10:35:58;;;;;;;0.55;0.55;;;6.60;99.90;;;;;;5139960;27;20458;-78
2024/01/01 10:38:25;;;;;;;0.50;0.50;;;6.70;99.90;;;;;;5127311;27;20035;-79
2024/01/01 10:40:55;;;;;;;0.47;0.47;;;6.70;99.90;;;;;;5133389;27;20035;-80
2024/01/01 10:43:25;;;;;;;0.50;0.50;;;6.90;99.90;;;;;;5139352;27;20053;-78
2024/01/01 10:45:54;;;;;;;0.40;0.40;;;7.00;99.90;;;;;;5122071;27;20050;-76
2024/01/01 10:48:22;;;;;;;0.43;0.43;;;7.00;99.90;;;;;;5137810;27;20080;-77
2024/01/01 10:51:05;;;;;;;0.45;0.45;;;7.10;99.90;;;;;;5137212;27;20085;-78
2024/01/01 10:53:46;;;;;;;0.43;0.43;;;7.10;99.90;;;;;;5129266;27;20482;-78
2024/01/01 10:56:21;;;;;;;0.40;0.40;;;7.10;99.90;;;;;;5138341;27;20043;-77
2024/01/01 10:59:18;;;;;;;0.40;0.40;;;7.20;99.90;;;;;;5132827;27;20519;-79
2024/01/01 11:01:45;;;;;;;0.40;0.40;;;7.20;99.90;;;;;;5134500;27;20135;-76
2024/01/01 11:04:18;;;;;;;0.30;0.30;;;7.20;99.90;;;;;;5127644;27;20039;-75
2024/01/01 11:06:46;;;;;;;0.40;0.40;;;7.30;99.90;;;;;;5126130;27;20045;-75
2024/01/01 11:09:18;;;;;;;0.40;0.40;;;7.30;99.90;;;;;;5134398;27;20156;-76
2024/01/01 11:11:55;;;;;;;0.40;0.40;;;7.30;99.90;;;;;;5124053;27;20098;-79
2024/01/01 11:14:28;;;;;;;0.50;0.50;;;7.30;99.90;;;;;;5117687;27;20035;-76
2024/01/01 11:16:56;;;;;;;0.45;0.45;;;7.30;99.90;;;;;;5123083;27;20040;-77
2024/01/01 11:19:35;;;;;;;0.50;0.50;;;7.50;99.90;;;;;;5100757;27;20047;-76
2024/01/01 11:22:20;;;;;;;0.50;0.50;;;7.40;99.90;;;;;;5122260;27;20035;-77
2024/01/01 11:24:47;;;;;;;0.30;0.30;;;7.40;99.90;;;;;;5105844;27;20066;-76
2024/01/01 11:27:44;;;;;;;0.50;0.50;;;7.40;99.90;;;;;;5132872;27;20066;-78
2024/01/01 11:30:11;;;;;;;0.40;0.40;;;7.40;99.90;;;;;;5132741;27;20051;-77
2024/01/01 11:32:37;;;;;;;0.50;0.50;;;7.40;99.90;;;;;;5110945;27;20062;-78
2024/01/01 11:35:05;;;;;;;0.40;0.40;;;7.40;99.90;;;;;;5113482;27;20042;-80
2024/01/01 11:37:31;;;;;;;0.45;0.45;;;7.40;99.90;;;;;;5120329;27;20039;-77
2024/01/01 11:39:58;;;;;;;0.30;0.30;;;6.50;99.90;;;;;;5116031;27;20042;-78
2024/01/01 11:42:23;;;;;;;1.02;1.02;;;7.40;99.90;;;;;;5132507;27;20927;-79
2024/01/01 11:44:49;;;;;;;0.50;0.50;;;7.40;99.90;;;;;;5131934;27;20171;-80
2024/01/01 11:47:18;;;;;;;0.40;0.40;;;7.30;99.90;;;;;;5126941;27;20100;-78
2024/01/01 11:49:43;;;;;;;0.63;0.63;;;7.30;99.90;;;;;;5133238;27;20168;-80
2024/01/01 11:52:11;;;;;;;0.43;0.43;;;7.30;99.90;;;;;;5113955;27;20505;-78
2024/01/01 11:54:38;;;;;;;0.47;0.47;;;7.20;99.90;;;;;;5134160;27;20504;-76
2024/01/01 11:57:04;;;;;;;0.40;0.40;;;7.20;99.90;;;;;;5133686;27;20432;-80
2024/01/01 11:59:30;;;;;;;;;;;7.20;99.90;;;;;;5133279;27;20034;-79
2024/01/01 12:01:56;;;;;;;0.40;0.40;;;7.30;99.90;;;;;;5139400;27;19938;-78
2024/01/01 12:04:22;;;;;;;0.50;0.50;;;7.40;99.90;;;;;;5108364;27;20491;-79
2024/01/01 12:06:51;;;;;;;0.50;0.50;;;7.50;99.90;;;;;;5112773;27;20035;-79
2024/01/01 12:09:19;;;;;;;0.40;0.40;;;7.50;99.90;;;;;;5120520;27;20051;-78
2024/01/01 12:11:45;;;;;;;0.50;0.50;;;7.60;99.90;;;;;;5130708;27;20113;-78
2024/01/01 12:14:11;;;;;;;0.50;0.50;;;7.80;99.90;;;;;;5127559;27;20186;-80
2024/01/01 12:16:37;;;;;;;0.60;0.60;;;7.50;99.90;;;;;;5129254;27;20054;-79
2024/01/01 12:19:05;;;;;;;0.40;0.40;;;7.50;99.90;;;;;;5136189;27;20042;-77
2024/01/01 12:21:39;;;;;;;0.57;0.57;;;7.50;99.90;;;;;;5112977;27;20043;-80
2024/01/01 12:24:12;;;;;;;0.50;0.50;;;7.50;99.90;;;;;;5134094;27;20555;-78
2024/01/01 12:26:38;;;;;;;0.60;0.60;;;7.60;99.90;;;;;;5130550;27;20051;-77
2024/01/01 12:29:11;;;;;;;0.50;0.50;;;7.70;99.90;;;;;;5119838;27;20042;-80
2024/01/01 12:31:38;;;;;;;0.40;0.40;;;7.80;99.90;;;;;;5132251;27;20473;-80
2024/01/01 12:34:06;;;;;;;0.40;0.40;;;7.80;99.90;;;;;;5102254;27;20063;-78
2024/01/01 12:36:32;;;;;;;1.60;1.52;;;7.90;99.90;;;;;;5118740;27;20039;-81
2024/01/01 12:38:58;;;;;;;;;;;7.90;99.90;;;;;;5133908;27;20041;-80
2024/01/01 12:41:23;;;;;;;0.40;0.40;;;8.00;99.90;;;;;;5134793;27;19923;-77
2024/01/01 12:43:49;;;;;;;0.50;0.50;;;8.20;99.90;;;;;;5119174;27;20042;-77
2024/01/01 12:46:15;;;;;;;0.30;0.30;;;8.20;99.90;;;;;;5130906;27;20074;-79
2024/01/01 12:48:47;;;;;;;0.40;0.40;;;8.20;99.90;;;;;;5126769;27;20449;-78
2024/01/01 12:51:16;;;;;;;0.38;0.38;;;8.20;99.90;;;;;;5123842;27;20126;-79
2024/01/01 12:53:42;;;;;;;0.50;0.50;;;8.20;99.90;;;;;;5124296;27;20043;-78
2024/01/01 12:56:08;;;;;;;1.88;1.80;;;8.20;99.90;;;;;;5109360;27;20046;-78
2024/01/01 12:58:34;;;;;;;0.43;0.43;;;8.20;99.90;;;;;;5124415;27;20069;-81